sensor_id;sensor_type;location;lat;lon;timestamp;pressure;altitude;pressure_sealevel;temperature;humidity
29121;BME280;16191;49.548;8.658;2023-12-20T00:01:05;100392.13;;;5.13;100.00
29121;BME280;16191;49.548;8.658;2023-12-20T00:03:32;100394.81;;;5.05;100.00
29121;BME280;16191;49.548;8.658;2023-12-20T00:06:08;100394.84;;;5.04;100.00
29121;BME280;16191;49.548;8.658;2023-12-20T00:08:35;100387.84;;;5.12;100.00
29121;BME280;16191;49.548;8.658;2023-12-20T00:11:02;100387.00;;;5.10;100.00
29121;BME280;16191;49.548;8.658;2023-12-20T00:13:29;100379.16;;;5.16;100.00
29121;BME280;16191;49.548;8.658;2023-12-20T00:15:55;100380.91;;;5.14;100.00
29121;BME280;16191;49.548;8.658;2023-12-20T00:18:23;100380.09;;;5.10;100.00
29121;BME280;16191;49.548;8.658;2023-12-20T00:20:49;100376.63;;;5.11;100.00
29121;BME280;16191;49.548;8.658;2023-12-20T00:23:16;100380.03;;;5.15;100.00
29121;BME280;16191;49.548;8.658;2023-12-20T00:25:42;100380.91;;;5.14;100.00
29121;BME280;16191;49.548;8.658;2023-12-20T00:28:09;100374.03;;;5.13;100.00
29121;BME280;16191;49.548;8.658;2023-12-20T00:30:36;100374.00;;;5.14;100.00
29121;BME280;16191;49.548;8.658;2023-12-20T00:33:03;100369.72;;;5.12;100.00
29121;BME280;16191;49.548;8.658;2023-12-20T00:35:30;100370.56;;;5.12;100.00
29121;BME280;16191;49.548;8.658;2023-12-20T00:37:58;100368.03;;;5.09;100.00
29121;BME280;16191;49.548;8.658;2023-12-20T00:40:25;100367.13;;;5.13;100.00
29121;BME280;16191;49.548;8.658;2023-12-20T00:42:52;100365.44;;;5.11;100.00
29121;BME280;16191;49.548;8.658;2023-12-20T00:45:19;100361.13;;;5.10;100.00
29121;BME280;16191;49.548;8.658;2023-12-20T00:47:45;100362.72;;;5.19;100.00
29121;BME280;16191;49.548;8.658;2023-12-20T00:50:12;100360.19;;;5.15;100.00
29121;BME280;16191;49.548;8.658;2023-12-20T00:52:39;100357.66;;;5.12;100.00
29121;BME280;16191;49.548;8.658;2023-12-20T00:55:06;100357.66;;;5.11;100.00
29121;BME280;16191;49.548;8.658;2023-12-20T00:57:34;100363.59;;;5.18;100.00
29121;BME280;16191;49.548;8.658;2023-12-20T01:00:00;100359.41;;;5.10;100.00
29121;BME280;16191;49.548;8.658;2023-12-20T01:02:27;100364.44;;;5.20;100.00
29121;BME280;16191;49.548;8.658;2023-12-20T01:04:53;100353.19;;;5.21;100.00
29121;BME280;16191;49.548;8.658;2023-12-20T01:07:20;100349.84;;;5.15;100.00
29121;BME280;16191;49.548;8.658;2023-12-20T01:09:47;100347.31;;;5.11;100.00
29121;BME280;16191;49.548;8.658;2023-12-20T01:12:14;100342.09;;;5.14;100.00
29121;BME280;16191;49.548;8.658;2023-12-20T01:14:41;100348.22;;;5.08;100.00
29121;BME280;16191;49.548;8.658;2023-12-20T01:17:08;100359.38;;;5.12;100.00
29121;BME280;16191;49.548;8.658;2023-12-20T01:19:35;100340.41;;;5.11;100.00
29121;BME280;16191;49.548;8.658;2023-12-20T01:22:03;100336.09;;;5.12;100.00
29121;BME280;16191;49.548;8.658;2023-12-20T01:24:30;100342.16;;;5.11;100.00
29121;BME280;16191;49.548;8.658;2023-12-20T01:26:56;100341.28;;;5.12;100.00
29121;BME280;16191;49.548;8.658;2023-12-20T01:29:23;100342.06;;;5.17;100.00
29121;BME280;16191;49.548;8.658;2023-12-20T01:31:50;100335.19;;;5.14;100.00
29121;BME280;16191;49.548;8.658;2023-12-20T01:34:17;100340.44;;;5.10;100.00
29121;BME280;16191;49.548;8.658;2023-12-20T01:36:44;100339.56;;;5.11;100.00
29121;BME280;16191;49.548;8.658;2023-12-20T01:39:11;100337.84;;;5.10;100.00
29121;BME280;16191;49.548;8.658;2023-12-20T01:41:50;100337.78;;;5.14;100.00
29121;BME280;16191;49.548;8.658;2023-12-20T01:44:17;100343.84;;;5.12;100.00
29121;BME280;16191;49.548;8.658;2023-12-20T01:46:44;100348.09;;;5.16;100.00
29121;BME280;16191;49.548;8.658;2023-12-20T01:49:11;100352.47;;;5.12;100.00
29121;BME280;16191;49.548;8.658;2023-12-20T01:51:38;100349.78;;;5.19;100.00
29121;BME280;16191;49.548;8.658;2023-12-20T01:54:05;100342.91;;;5.18;100.00
29121;BME280;16191;49.548;8.658;2023-12-20T01:56:32;100344.69;;;5.14;100.00
29121;BME280;16191;49.548;8.658;2023-12-20T01:59:00;100335.25;;;5.11;100.00
29121;BME280;16191;49.548;8.658;2023-12-20T02:01:27;100332.63;;;5.13;100.00
29121;BME280;16191;49.548;8.658;2023-12-20T02:03:55;100332.59;;;5.16;100.00
29121;BME280;16191;49.548;8.658;2023-12-20T02:06:24;100332.47;;;5.21;100.00
29121;BME280;16191;49.548;8.658;2023-12-20T02:08:54;100336.06;;;5.15;100.00
29121;BME280;16191;49.548;8.658;2023-12-20T02:11:21;100336.94;;;5.14;100.00
29121;BME280;16191;49.548;8.658;2023-12-20T02:13:48;100336.16;;;5.07;100.00
29121;BME280;16191;49.548;8.658;2023-12-20T02:16:14;100342.06;;;5.17;100.00
29121;BME280;16191;49.548;8.658;2023-12-20T02:18:42;100333.44;;;5.16;100.00
29121;BME280;16191;49.548;8.658;2023-12-20T02:21:10;100334.28;;;5.17;100.00
29121;BME280;16191;49.548;8.658;2023-12-20T02:23:36;100336.97;;;5.12;100.00
29121;BME280;16191;49.548;8.658;2023-12-20T02:26:04;100334.34;;;5.14;100.00
29121;BME280;16191;49.548;8.658;2023-12-20T02:28:31;100336.94;;;5.14;100.00
29121;BME280;16191;49.548;8.658;2023-12-20T02:30:58;100323.19;;;5.10;100.00
29121;BME280;16191;49.548;8.658;2023-12-20T02:33:25;100322.28;;;5.13;100.00
29121;BME280;16191;49.548;8.658;2023-12-20T02:35:52;100325.81;;;5.09;100.00
29121;BME280;16191;49.548;8.658;2023-12-20T02:38:39;100334.34;;;5.14;100.00
29121;BME280;16191;49.548;8.658;2023-12-20T02:41:25;100337.84;;;5.11;100.00
29121;BME280;16191;49.548;8.658;2023-12-20T02:44:12;100341.22;;;5.15;100.00
29121;BME280;16191;49.548;8.658;2023-12-20T02:46:58;100340.34;;;5.16;100.00
29121;BME280;16191;49.548;8.658;2023-12-20T02:49:45;100330.06;;;5.13;100.00
29121;BME280;16191;49.548;8.658;2023-12-20T02:52:31;100324.81;;;5.16;100.00
29121;BME280;16191;49.548;8.658;2023-12-20T02:54:58;100314.56;;;5.11;100.00
29121;BME280;16191;49.548;8.658;2023-12-20T02:57:24;100311.94;;;5.13;100.00
29121;BME280;16191;49.548;8.658;2023-12-20T02:59:51;100320.53;;;5.15;100.00
29121;BME280;16191;49.548;8.658;2023-12-20T03:02:18;100327.53;;;5.08;100.00
29121;BME280;16191;49.548;8.658;2023-12-20T03:04:44;100325.81;;;5.09;100.00
29121;BME280;16191;49.548;8.658;2023-12-20T03:07:11;100324.88;;;5.13;100.00
29121;BME280;16191;49.548;8.658;2023-12-20T03:09:38;100327.47;;;5.13;100.00
29121;BME280;16191;49.548;8.658;2023-12-20T03:12:25;100324.88;;;5.13;100.00
29121;BME280;16191;49.548;8.658;2023-12-20T03:14:51;100321.44;;;5.12;100.00
29121;BME280;16191;49.548;8.658;2023-12-20T03:17:18;100323.22;;;5.09;100.00
29121;BME280;16191;49.548;8.658;2023-12-20T03:19:45;100327.47;;;5.13;100.00
29121;BME280;16191;49.548;8.658;2023-12-20T03:22:12;100328.28;;;5.15;100.00
29121;BME280;16191;49.548;8.658;2023-12-20T03:24:39;100337.00;;;5.09;100.00
29121;BME280;16191;49.548;8.658;2023-12-20T03:27:05;100342.16;;;5.11;100.00
29121;BME280;16191;49.548;8.658;2023-12-20T03:29:32;100336.94;;;5.14;100.00
29121;BME280;16191;49.548;8.658;2023-12-20T03:31:58;100331.78;;;5.12;100.00
29121;BME280;16191;49.548;8.658;2023-12-20T03:34:26;100346.50;;;5.09;100.00
29121;BME280;16191;49.548;8.658;2023-12-20T03:36:53;100346.50;;;5.09;100.00
29121;BME280;16191;49.548;8.658;2023-12-20T03:39:20;100332.72;;;5.08;100.00
29121;BME280;16191;49.548;8.658;2023-12-20T03:41:46;100336.16;;;5.07;100.00
29121;BME280;16191;49.548;8.658;2023-12-20T03:44:13;100330.97;;;5.09;100.00
29121;BME280;16191;49.548;8.658;2023-12-20T03:46:39;100330.16;;;5.07;100.00
29121;BME280;16191;49.548;8.658;2023-12-20T03:49:06;100333.50;;;5.12;100.00
29121;BME280;16191;49.548;8.658;2023-12-20T03:51:33;100336.09;;;5.12;100.00
29121;BME280;16191;49.548;8.658;2023-12-20T03:53:59;100322.25;;;5.14;100.00
29121;BME280;16191;49.548;8.658;2023-12-20T03:56:26;100316.34;;;5.06;100.00
29121;BME280;16191;49.548;8.658;2023-12-20T03:58:52;100323.19;;;5.10;100.00
29121;BME280;16191;49.548;8.658;2023-12-20T04:01:19;100331.81;;;5.09;100.00
29121;BME280;16191;49.548;8.658;2023-12-20T04:03:45;100321.47;;;5.11;100.00
29121;BME280;16191;49.548;8.658;2023-12-20T04:06:17;100328.38;;;5.10;100.00
29121;BME280;16191;49.548;8.658;2023-12-20T04:08:44;100342.19;;;5.08;100.00
29121;BME280;16191;49.548;8.658;2023-12-20T04:11:10;100340.38;;;5.14;100.00
29121;BME280;16191;49.548;8.658;2023-12-20T04:13:37;100335.28;;;5.10;100.00
29121;BME280;16191;49.548;8.658;2023-12-20T04:16:04;100343.78;;;5.16;100.00
29121;BME280;16191;49.548;8.658;2023-12-20T04:18:31;100341.41;;;5.03;100.00
29121;BME280;16191;49.548;8.658;2023-12-20T04:20:58;100354.28;;;5.07;100.00
29121;BME280;16191;49.548;8.658;2023-12-20T04:23:25;100349.97;;;5.08;100.00
29121;BME280;16191;49.548;8.658;2023-12-20T04:25:51;100348.31;;;5.02;100.00
29121;BME280;16191;49.548;8.658;2023-12-20T04:28:18;100350.88;;;5.04;100.00
29121;BME280;16191;49.548;8.658;2023-12-20T04:30:45;100349.97;;;5.08;100.00
29121;BME280;16191;49.548;8.658;2023-12-20T04:33:11;100355.19;;;5.05;100.00
29121;BME280;16191;49.548;8.658;2023-12-20T04:35:38;100349.09;;;5.07;100.00
29121;BME280;16191;49.548;8.658;2023-12-20T04:38:07;100353.41;;;5.08;100.00
29121;BME280;16191;49.548;8.658;2023-12-20T04:40:33;100367.22;;;5.06;100.00
29121;BME280;16191;49.548;8.658;2023-12-20T04:43:00;100365.56;;;5.02;100.00
29121;BME280;16191;49.548;8.658;2023-12-20T04:45:26;100365.47;;;5.08;100.00
29121;BME280;16191;49.548;8.658;2023-12-20T04:47:53;100362.09;;;5.04;100.00
29121;BME280;16191;49.548;8.658;2023-12-20T04:50:20;100370.66;;;5.06;100.00
29121;BME280;16191;49.548;8.658;2023-12-20T04:52:48;100368.91;;;5.10;100.00
29121;BME280;16191;49.548;8.658;2023-12-20T04:55:14;100374.00;;;5.14;100.00
29121;BME280;16191;49.548;8.658;2023-12-20T04:57:41;100380.06;;;5.13;100.00
29121;BME280;16191;49.548;8.658;2023-12-20T05:00:08;100378.28;;;5.15;100.00
29121;BME280;16191;49.548;8.658;2023-12-20T05:02:36;100383.44;;;5.17;100.00
29121;BME280;16191;49.548;8.658;2023-12-20T05:05:03;100376.66;;;5.10;100.00
29121;BME280;16191;49.548;8.658;2023-12-20T05:07:29;100387.81;;;5.13;100.00
29121;BME280;16191;49.548;8.658;2023-12-20T05:09:56;100395.63;;;5.10;100.00
29121;BME280;16191;49.548;8.658;2023-12-20T05:12:23;100399.81;;;5.18;100.00
29121;BME280;16191;49.548;8.658;2023-12-20T05:14:49;100401.63;;;5.12;100.00
29121;BME280;16191;49.548;8.658;2023-12-20T05:17:16;100406.84;;;5.08;100.00
29121;BME280;16191;49.548;8.658;2023-12-20T05:19:42;100403.38;;;5.10;100.00
29121;BME280;16191;49.548;8.658;2023-12-20T05:22:09;100401.63;;;5.12;100.00
29121;BME280;16191;49.548;8.658;2023-12-20T05:24:36;100411.19;;;5.07;100.00
29121;BME280;16191;49.548;8.658;2023-12-20T05:27:03;100418.06;;;5.08;100.00
29121;BME280;16191;49.548;8.658;2023-12-20T05:29:30;100416.34;;;5.07;100.00
29121;BME280;16191;49.548;8.658;2023-12-20T05:31:58;100418.09;;;5.05;100.00
29121;BME280;16191;49.548;8.658;2023-12-20T05:34:24;100416.34;;;5.07;100.00
29121;BME280;16191;49.548;8.658;2023-12-20T05:36:51;100417.16;;;5.11;100.00
29121;BME280;16191;49.548;8.658;2023-12-20T05:39:18;100418.03;;;5.10;100.00
29121;BME280;16191;49.548;8.658;2023-12-20T05:41:44;100415.53;;;5.04;100.00
29121;BME280;16191;49.548;8.658;2023-12-20T05:44:11;100426.69;;;5.09;100.00
29121;BME280;16191;49.548;8.658;2023-12-20T05:46:37;100432.69;;;5.11;100.00
29121;BME280;16191;49.548;8.658;2023-12-20T05:49:04;100445.53;;;5.17;100.00
29121;BME280;16191;49.548;8.658;2023-12-20T05:51:31;100454.06;;;5.21;100.00
29121;BME280;16191;49.548;8.658;2023-12-20T05:53:58;100458.38;;;5.20;100.00
29121;BME280;16191;49.548;8.658;2023-12-20T05:56:25;100442.94;;;5.17;100.00
29121;BME280;16191;49.548;8.658;2023-12-20T05:58:51;100464.56;;;5.11;100.00
29121;BME280;16191;49.548;8.658;2023-12-20T06:01:18;100461.94;;;5.14;100.00
29121;BME280;16191;49.548;8.658;2023-12-20T06:03:45;100474.03;;;5.14;100.00
29121;BME280;16191;49.548;8.658;2023-12-20T06:06:14;100488.72;;;5.12;100.00
29121;BME280;16191;49.548;8.658;2023-12-20T06:08:43;100487.78;;;5.16;100.00
29121;BME280;16191;49.548;8.658;2023-12-20T06:11:10;100484.44;;;5.09;100.00
29121;BME280;16191;49.548;8.658;2023-12-20T06:13:36;100479.25;;;5.09;100.00
29121;BME280;16191;49.548;8.658;2023-12-20T06:16:05;100484.38;;;5.12;100.00
29121;BME280;16191;49.548;8.658;2023-12-20T06:18:32;100480.91;;;5.15;100.00
29121;BME280;16191;49.548;8.658;2023-12-20T06:20:59;100486.03;;;5.20;100.00
29121;BME280;16191;49.548;8.658;2023-12-20T06:23:25;100483.50;;;5.13;100.00
29121;BME280;16191;49.548;8.658;2023-12-20T06:25:53;100485.19;;;5.18;100.00
29121;BME280;16191;49.548;8.658;2023-12-20T06:28:20;100484.38;;;5.12;100.00
29121;BME280;16191;49.548;8.658;2023-12-20T06:30:47;100485.25;;;5.13;100.00
29121;BME280;16191;49.548;8.658;2023-12-20T06:33:15;100500.78;;;5.11;100.00
29121;BME280;16191;49.548;8.658;2023-12-20T06:35:42;100500.72;;;5.16;100.00
29121;BME280;16191;49.548;8.658;2023-12-20T06:38:09;100490.34;;;5.18;100.00
29121;BME280;16191;49.548;8.658;2023-12-20T06:40:36;100490.41;;;5.13;100.00
29121;BME280;16191;49.548;8.658;2023-12-20T06:43:02;100491.28;;;5.12;100.00
29121;BME280;16191;49.548;8.658;2023-12-20T06:45:41;100501.59;;;5.15;100.00
29121;BME280;16191;49.548;8.658;2023-12-20T06:48:08;100505.09;;;5.11;100.00
29121;BME280;16191;49.548;8.658;2023-12-20T06:50:36;100501.75;;;5.04;100.00
29121;BME280;16191;49.548;8.658;2023-12-20T06:53:07;100506.84;;;5.10;100.00
29121;BME280;16191;49.548;8.658;2023-12-20T06:55:35;100504.16;;;5.18;100.00
29121;BME280;16191;49.548;8.658;2023-12-20T06:58:03;100506.75;;;5.18;100.00
29121;BME280;16191;49.548;8.658;2023-12-20T07:00:32;100502.47;;;5.15;100.00
29121;BME280;16191;49.548;8.658;2023-12-20T07:02:59;100500.75;;;5.14;100.00
29121;BME280;16191;49.548;8.658;2023-12-20T07:05:25;100498.19;;;5.11;100.00
29121;BME280;16191;49.548;8.658;2023-12-20T07:07:53;100492.16;;;5.12;100.00
29121;BME280;16191;49.548;8.658;2023-12-20T07:10:20;100495.69;;;5.05;100.00
29121;BME280;16191;49.548;8.658;2023-12-20T07:12:47;100505.25;;;5.00;100.00
29121;BME280;16191;49.548;8.658;2023-12-20T07:15:15;100510.41;;;5.00;100.00
29121;BME280;16191;49.548;8.658;2023-12-20T07:17:41;100509.44;;;5.09;100.00
29121;BME280;16191;49.548;8.658;2023-12-20T07:20:09;100507.72;;;5.08;100.00
29121;BME280;16191;49.548;8.658;2023-12-20T07:22:37;100501.75;;;5.03;100.00
29121;BME280;16191;49.548;8.658;2023-12-20T07:25:04;100507.78;;;5.05;100.00
29121;BME280;16191;49.548;8.658;2023-12-20T07:27:30;100506.97;;;5.00;100.00
29121;BME280;16191;49.548;8.658;2023-12-20T07:29:57;100507.75;;;5.06;100.00
29121;BME280;16191;49.548;8.658;2023-12-20T07:32:24;100506.91;;;5.04;100.00
29121;BME280;16191;49.548;8.658;2023-12-20T07:34:50;100509.56;;;4.98;100.00
29121;BME280;16191;49.548;8.658;2023-12-20T07:37:17;100526.84;;;4.98;100.00
29121;BME280;16191;49.548;8.658;2023-12-20T07:39:44;100521.75;;;4.92;100.00
29121;BME280;16191;49.548;8.658;2023-12-20T07:42:10;100529.63;;;4.82;100.00
29121;BME280;16191;49.548;8.658;2023-12-20T07:44:37;100541.66;;;4.85;100.00
29121;BME280;16191;49.548;8.658;2023-12-20T07:47:04;100550.25;;;4.89;100.00
29121;BME280;16191;49.548;8.658;2023-12-20T07:49:31;100554.56;;;4.87;100.00
29121;BME280;16191;49.548;8.658;2023-12-20T07:51:58;100551.94;;;4.91;100.00
29121;BME280;16191;49.548;8.658;2023-12-20T07:54:25;100550.25;;;4.89;100.00
29121;BME280;16191;49.548;8.658;2023-12-20T07:56:52;100551.94;;;4.90;100.00
29121;BME280;16191;49.548;8.658;2023-12-20T07:59:18;100558.00;;;4.87;100.00
29121;BME280;16191;49.548;8.658;2023-12-20T08:01:57;100570.91;;;4.89;100.00
29121;BME280;16191;49.548;8.658;2023-12-20T08:04:26;100570.09;;;4.87;100.00
29121;BME280;16191;49.548;8.658;2023-12-20T08:06:53;100558.88;;;4.88;100.00
29121;BME280;16191;49.548;8.658;2023-12-20T08:09:20;100562.34;;;4.85;100.00
29121;BME280;16191;49.548;8.658;2023-12-20T08:11:47;100564.06;;;4.85;100.00
29121;BME280;16191;49.548;8.658;2023-12-20T08:14:15;100564.97;;;4.80;100.00
29121;BME280;16191;49.548;8.658;2023-12-20T08:16:42;100569.25;;;4.85;100.00
29121;BME280;16191;49.548;8.658;2023-12-20T08:19:09;100575.31;;;4.82;100.00
29121;BME280;16191;49.548;8.658;2023-12-20T08:21:35;100576.16;;;4.82;100.00
29121;BME280;16191;49.548;8.658;2023-12-20T08:24:04;100583.06;;;4.80;100.00
29121;BME280;16191;49.548;8.658;2023-12-20T08:26:32;100582.19;;;4.83;100.00
29121;BME280;16191;49.548;8.658;2023-12-20T08:28:59;100578.78;;;4.79;100.00
29121;BME280;16191;49.548;8.658;2023-12-20T08:31:28;100575.31;;;4.82;100.00
29121;BME280;16191;49.548;8.658;2023-12-20T08:33:55;100579.66;;;4.77;100.00
29121;BME280;16191;49.548;8.658;2023-12-20T08:36:21;100575.34;;;4.77;100.00
29121;BME280;16191;49.548;8.658;2023-12-20T08:38:50;100578.81;;;4.76;100.00
29121;BME280;16191;49.548;8.658;2023-12-20T08:41:17;100582.31;;;4.75;100.00
29121;BME280;16191;49.548;8.658;2023-12-20T08:43:44;100580.59;;;4.73;100.00
29121;BME280;16191;49.548;8.658;2023-12-20T08:46:11;100584.81;;;4.78;100.00
29121;BME280;16191;49.548;8.658;2023-12-20T08:48:39;100587.47;;;4.75;100.00
29121;BME280;16191;49.548;8.658;2023-12-20T08:51:06;100594.31;;;4.78;100.00
29121;BME280;16191;49.548;8.658;2023-12-20T08:53:35;100594.28;;;4.81;100.00
29121;BME280;16191;49.548;8.658;2023-12-20T08:56:02;100589.94;;;4.85;100.00
29121;BME280;16191;49.548;8.658;2023-12-20T08:58:28;100596.75;;;4.92;100.00
29121;BME280;16191;49.548;8.658;2023-12-20T09:00:56;100597.34;;;5.13;100.00
29121;BME280;16191;49.548;8.658;2023-12-20T09:03:24;100602.44;;;5.20;100.00
29121;BME280;16191;49.548;8.658;2023-12-20T09:05:50;100600.53;;;5.31;100.00
29121;BME280;16191;49.548;8.658;2023-12-20T09:08:17;100598.88;;;5.27;100.00
29121;BME280;16191;49.548;8.658;2023-12-20T09:10:44;100601.44;;;5.28;100.00
29121;BME280;16191;49.548;8.658;2023-12-20T09:13:11;100603.19;;;5.26;100.00
29121;BME280;16191;49.548;8.658;2023-12-20T09:15:38;100596.28;;;5.25;100.00
29121;BME280;16191;49.548;8.658;2023-12-20T09:18:04;100600.59;;;5.26;100.00
29121;BME280;16191;49.548;8.658;2023-12-20T09:20:31;100604.03;;;5.27;100.00
29121;BME280;16191;49.548;8.658;2023-12-20T09:22:58;100608.31;;;5.31;100.00
29121;BME280;16191;49.548;8.658;2023-12-20T09:25:25;100617.00;;;5.25;100.00
29121;BME280;16191;49.548;8.658;2023-12-20T09:27:52;100612.66;;;5.27;100.00
29121;BME280;16191;49.548;8.658;2023-12-20T09:30:19;100616.06;;;5.31;100.00
29121;BME280;16191;49.548;8.658;2023-12-20T09:32:54;100631.59;;;5.29;100.00
29121;BME280;16191;49.548;8.658;2023-12-20T09:35:21;100633.28;;;5.33;100.00
29121;BME280;16191;49.548;8.658;2023-12-20T09:37:48;100631.53;;;5.37;100.00
29121;BME280;16191;49.548;8.658;2023-12-20T09:40:18;100623.78;;;5.35;100.00
29121;BME280;16191;49.548;8.658;2023-12-20T09:42:56;100630.66;;;5.36;100.00
29121;BME280;16191;49.548;8.658;2023-12-20T09:45:23;100634.97;;;5.36;100.00
29121;BME280;16191;49.548;8.658;2023-12-20T09:47:52;100639.25;;;5.38;100.00
29121;BME280;16191;49.548;8.658;2023-12-20T09:50:20;100638.41;;;5.38;100.00
29121;BME280;16191;49.548;8.658;2023-12-20T09:52:50;100637.50;;;5.40;100.00
29121;BME280;16191;49.548;8.658;2023-12-20T09:55:18;100627.09;;;5.43;100.00
29121;BME280;16191;49.548;8.658;2023-12-20T09:57:47;100637.44;;;5.43;100.00
29121;BME280;16191;49.548;8.658;2023-12-20T10:00:14;100637.50;;;5.40;100.00
29121;BME280;16191;49.548;8.658;2023-12-20T10:02:57;100638.38;;;5.41;100.00
29121;BME280;16191;49.548;8.658;2023-12-20T10:05:32;100638.41;;;5.38;100.00
29121;BME280;16191;49.548;8.658;2023-12-20T10:08:00;100637.50;;;5.40;100.00
29121;BME280;16191;49.548;8.658;2023-12-20T10:10:28;100644.34;;;5.44;100.00
29121;BME280;16191;49.548;8.658;2023-12-20T10:13:11;100633.16;;;5.42;100.00
29121;BME280;16191;49.548;8.658;2023-12-20T10:15:39;100634.84;;;5.43;100.00
29121;BME280;16191;49.548;8.658;2023-12-20T10:18:05;100638.25;;;5.48;100.00
29121;BME280;16191;49.548;8.658;2023-12-20T10:20:33;100637.34;;;5.51;100.00
29121;BME280;16191;49.548;8.658;2023-12-20T10:23:00;100628.72;;;5.50;100.00
29121;BME280;16191;49.548;8.658;2023-12-20T10:25:28;100624.34;;;5.57;100.00
29121;BME280;16191;49.548;8.658;2023-12-20T10:28:15;100624.38;;;5.53;100.00
29121;BME280;16191;49.548;8.658;2023-12-20T10:30:46;100613.09;;;5.60;100.00
29121;BME280;16191;49.548;8.658;2023-12-20T10:33:13;100613.09;;;5.58;100.00
29121;BME280;16191;49.548;8.658;2023-12-20T10:35:49;100629.44;;;5.62;100.00
29121;BME280;16191;49.548;8.658;2023-12-20T10:38:16;100618.97;;;5.68;100.00
29121;BME280;16191;49.548;8.658;2023-12-20T10:40:45;100618.03;;;5.75;100.00
29121;BME280;16191;49.548;8.658;2023-12-20T10:43:12;100615.41;;;5.76;100.00
29121;BME280;16191;49.548;8.658;2023-12-20T10:45:38;100613.63;;;5.80;100.00
29121;BME280;16191;49.548;8.658;2023-12-20T10:48:05;100624.81;;;5.82;100.00
29121;BME280;16191;49.548;8.658;2023-12-20T10:50:33;100623.88;;;5.89;100.00
29121;BME280;16191;49.548;8.658;2023-12-20T10:53:02;100626.44;;;5.89;100.00
29121;BME280;16191;49.548;8.658;2023-12-20T10:55:29;100627.25;;;5.93;100.00
29121;BME280;16191;49.548;8.658;2023-12-20T10:58:09;100620.31;;;5.96;100.00
29121;BME280;16191;49.548;8.658;2023-12-20T11:00:39;100625.47;;;5.98;100.00
29121;BME280;16191;49.548;8.658;2023-12-20T11:03:09;100620.22;;;6.02;100.00
29121;BME280;16191;49.548;8.658;2023-12-20T11:08:13;100618.50;;;6.01;100.00
29121;BME280;16191;49.548;8.658;2023-12-20T11:10:59;100612.44;;;6.02;100.00
29121;BME280;16191;49.548;8.658;2023-12-20T11:13:34;100616.75;;;6.03;100.00
29121;BME280;16191;49.548;8.658;2023-12-20T11:16:02;100611.63;;;6.00;100.00
29121;BME280;16191;49.548;8.658;2023-12-20T11:18:30;100600.31;;;6.04;100.00
29121;BME280;16191;49.548;8.658;2023-12-20T11:21:01;100601.22;;;6.02;100.00
29121;BME280;16191;49.548;8.658;2023-12-20T11:23:30;100587.41;;;6.01;100.00
29121;BME280;16191;49.548;8.658;2023-12-20T11:25:57;100597.78;;;6.01;100.00
29121;BME280;16191;49.548;8.658;2023-12-20T11:28:27;100595.19;;;6.01;100.00
29121;BME280;16191;49.548;8.658;2023-12-20T11:30:56;100596.06;;;6.00;100.00
29121;BME280;16191;49.548;8.658;2023-12-20T11:33:24;100587.41;;;6.01;100.00
29121;BME280;16191;49.548;8.658;2023-12-20T11:35:56;100594.34;;;6.01;100.00
29121;BME280;16191;49.548;8.658;2023-12-20T11:38:23;100584.84;;;6.01;100.00
29121;BME280;16191;49.548;8.658;2023-12-20T11:40:53;100589.13;;;6.02;100.00
29121;BME280;16191;49.548;8.658;2023-12-20T11:43:35;100591.72;;;6.02;100.00
29121;BME280;16191;49.548;8.658;2023-12-20T11:46:03;100596.00;;;6.05;100.00
29121;BME280;16191;49.548;8.658;2023-12-20T11:48:32;100595.16;;;6.04;100.00
29121;BME280;16191;49.548;8.658;2023-12-20T11:50:59;100601.97;;;6.07;100.00
29121;BME280;16191;49.548;8.658;2023-12-20T11:53:25;100603.72;;;6.06;100.00
29121;BME280;16191;49.548;8.658;2023-12-20T11:55:54;100591.63;;;6.07;100.00
29121;BME280;16191;49.548;8.658;2023-12-20T11:58:20;100590.84;;;6.03;100.00
29121;BME280;16191;49.548;8.658;2023-12-20T12:00:49;100591.69;;;6.04;100.00
29121;BME280;16191;49.548;8.658;2023-12-20T12:03:16;100597.72;;;6.06;100.00
29121;BME280;16191;49.548;8.658;2023-12-20T12:05:43;100591.69;;;6.04;100.00
29121;BME280;16191;49.548;8.658;2023-12-20T12:08:10;100598.53;;;6.06;100.00
29121;BME280;16191;49.548;8.658;2023-12-20T12:10:36;100591.63;;;6.07;100.00
29121;BME280;16191;49.548;8.658;2023-12-20T12:13:03;100584.69;;;6.07;100.00
29121;BME280;16191;49.548;8.658;2023-12-20T12:15:30;100583.84;;;6.07;100.00
29121;BME280;16191;49.548;8.658;2023-12-20T12:17:57;100594.22;;;6.07;100.00
29121;BME280;16191;49.548;8.658;2023-12-20T12:20:24;100588.97;;;6.10;100.00
29121;BME280;16191;49.548;8.658;2023-12-20T12:23:00;100589.00;;;6.08;100.00
29121;BME280;16191;49.548;8.658;2023-12-20T12:25:29;100584.75;;;6.06;100.00
29121;BME280;16191;49.548;8.658;2023-12-20T12:27:57;100576.06;;;6.08;100.00
29121;BME280;16191;49.548;8.658;2023-12-20T12:30:24;100570.84;;;6.10;100.00
29121;BME280;16191;49.548;8.658;2023-12-20T12:32:55;100575.19;;;6.08;100.00
29121;BME280;16191;49.548;8.658;2023-12-20T12:35:22;100584.69;;;6.09;100.00
29121;BME280;16191;49.548;8.658;2023-12-20T12:37:49;100580.50;;;6.02;100.00
29121;BME280;16191;49.548;8.658;2023-12-20T12:40:16;100577.91;;;6.03;100.00
29121;BME280;16191;49.548;8.658;2023-12-20T12:42:44;100576.16;;;6.04;100.00
29121;BME280;16191;49.548;8.658;2023-12-20T12:45:11;100574.47;;;6.01;100.00
29121;BME280;16191;49.548;8.658;2023-12-20T12:47:39;100580.47;;;6.03;100.00
29121;BME280;16191;49.548;8.658;2023-12-20T12:50:06;100580.47;;;6.05;100.00
29121;BME280;16191;49.548;8.658;2023-12-20T12:52:33;100584.78;;;6.04;100.00
29121;BME280;16191;49.548;8.658;2023-12-20T12:55:00;100577.03;;;6.03;100.00
29121;BME280;16191;49.548;8.658;2023-12-20T12:57:26;100590.84;;;6.03;100.00